Time;durP1;ratioP1;P1;durP2;ratioP2;P2;SDS_P1;SDS_P2;PMS_P1;PMS_P2;Temp;Humidity;BMP_temperature;BMP_pressure;BME280_temperature;BME280_humidity;BME280_pressure;Samples;Min_cycle;Max_cycle;Signal;HPM_P1;HPM_P2
2021/07/11 00:00:10;;;;;;;12.43;3.00;;;25.30;97.40;;;;;;5014931;28;20025;-77
2021/07/11 00:02:36;;;;;;;8.20;3.25;;;25.20;97.40;;;;;;5014516;28;20494;-77
2021/07/11 00:05:05;;;;;;;7.07;3.28;;;25.20;97.50;;;;;;5014684;28;20048;-76
2021/07/11 00:07:31;;;;;;;3.47;2.40;;;25.30;97.50;;;;;;5014634;28;20030;-77
2021/07/11 00:09:57;;;;;;;3.42;2.40;;;25.30;97.50;;;;;;5014230;28;20022;-76
2021/07/11 00:12:24;;;;;;;10.55;3.05;;;25.30;97.70;;;;;;5013815;28;20478;-77
2021/07/11 00:14:50;;;;;;;5.22;3.15;;;25.20;97.70;;;;;;5014287;28;20119;-77
2021/07/11 00:17:15;;;;;;;4.43;2.90;;;25.10;97.70;;;;;;5014572;28;20168;-77
2021/07/11 00:19:41;;;;;;;5.55;2.70;;;25.10;97.80;;;;;;5013341;28;20138;-77
2021/07/11 00:22:09;;;;;;;11.13;2.90;;;25.10;97.70;;;;;;5013993;28;20026;-76
2021/07/11 00:24:39;;;;;;;7.82;2.90;;;25.00;97.90;;;;;;5014481;28;20034;-77
2021/07/11 00:27:05;;;;;;;6.50;2.92;;;25.00;98.00;;;;;;5014197;28;20030;-77
2021/07/11 00:29:31;;;;;;;4.10;2.90;;;25.00;97.90;;;;;;5011936;28;20030;-77
2021/07/11 00:31:56;;;;;;;8.90;3.03;;;24.90;97.90;;;;;;5012910;28;20518;-77
2021/07/11 00:34:22;;;;;;;6.93;2.95;;;24.90;97.90;;;;;;5012416;28;20088;-76
2021/07/11 00:36:48;;;;;;;7.90;2.78;;;24.90;98.00;;;;;;5013048;28;20113;-76
2021/07/11 00:39:14;;;;;;;4.72;3.30;;;24.90;98.10;;;;;;5013218;28;20036;-76
2021/07/11 00:41:41;;;;;;;10.48;3.40;;;24.90;98.10;;;;;;5012523;28;20385;-76
2021/07/11 00:44:07;;;;;;;3.38;2.72;;;24.80;98.10;;;;;;5012745;28;20449;-77
2021/07/11 00:46:35;;;;;;;7.60;2.28;;;24.80;98.10;;;;;;5011961;28;20463;-77
2021/07/11 00:49:04;;;;;;;6.68;2.90;;;24.80;98.20;;;;;;5011738;28;20450;-77
2021/07/11 00:51:30;;;;;;;3.33;2.67;;;24.80;98.20;;;;;;5012705;28;20030;-77
2021/07/11 00:53:58;;;;;;;6.03;2.70;;;24.80;98.40;;;;;;5012942;28;20517;-77
2021/07/11 00:56:23;;;;;;;10.82;2.67;;;24.80;98.20;;;;;;5013224;28;20043;-77
2021/07/11 00:58:49;;;;;;;6.10;3.08;;;24.70;98.30;;;;;;5013018;28;20022;-76
2021/07/11 01:01:32;;;;;;;2.40;2.20;;;24.70;98.30;;;;;;5012943;28;20026;-77
2021/07/11 01:04:06;;;;;;;6.50;3.08;;;24.70;98.30;;;;;;5012571;28;20028;-77
2021/07/11 01:06:37;;;;;;;10.40;2.80;;;24.70;98.40;;;;;;5012656;28;20380;-76
2021/07/11 01:09:07;;;;;;;9.07;3.15;;;24.70;98.50;;;;;;5012782;28;20026;-77
2021/07/11 01:11:41;;;;;;;6.65;3.28;;;24.60;98.50;;;;;;5012685;28;20466;-77
2021/07/11 01:14:07;;;;;;;3.50;2.65;;;24.70;98.50;;;;;;5012525;28;20133;-77
2021/07/11 01:16:35;;;;;;;3.58;2.75;;;24.70;98.90;;;;;;5012626;28;20026;-76
2021/07/11 01:19:10;;;;;;;7.55;3.10;;;24.60;98.70;;;;;;5012603;28;20026;-76
2021/07/11 01:21:44;;;;;;;3.25;2.72;;;24.50;98.80;;;;;;5012729;28;20072;-77
2021/07/11 01:24:32;;;;;;;4.20;2.85;;;24.50;98.70;;;;;;5012383;28;20046;-76
2021/07/11 01:27:00;;;;;;;4.82;2.65;;;24.50;98.80;;;;;;5012595;28;20045;-77
2021/07/11 01:29:26;;;;;;;3.97;2.83;;;24.50;98.90;;;;;;5012401;28;20098;-76
2021/07/11 01:31:55;;;;;;;6.40;2.60;;;24.50;98.90;;;;;;5012522;28;20116;-77
2021/07/11 01:34:25;;;;;;;5.55;3.00;;;24.50;99.00;;;;;;5012037;28;20026;-76
2021/07/11 01:36:51;;;;;;;8.07;3.15;;;24.40;99.00;;;;;;5012364;28;20026;-77
2021/07/11 01:39:18;;;;;;;4.85;3.00;;;24.40;99.10;;;;;;5012305;28;20025;-77
2021/07/11 01:41:45;;;;;;;7.35;2.90;;;24.30;99.20;;;;;;5012235;28;20037;-77
2021/07/11 01:44:12;;;;;;;6.32;2.90;;;24.30;99.30;;;;;;5011967;28;20063;-77
2021/07/11 01:46:41;;;;;;;3.63;2.85;;;24.30;99.40;;;;;;5011499;28;20033;-77
2021/07/11 01:49:08;;;;;;;9.55;2.55;;;24.20;99.40;;;;;;5011704;28;20022;-77
2021/07/11 01:51:34;;;;;;;5.15;3.00;;;24.20;99.40;;;;;;5011755;28;20092;-77
2021/07/11 01:54:00;;;;;;;4.13;3.00;;;24.30;99.50;;;;;;5012134;28;20105;-76
2021/07/11 01:56:28;;;;;;;3.65;3.10;;;24.30;99.50;;;;;;5011962;28;20493;-76
2021/07/11 01:58:53;;;;;;;6.50;2.55;;;24.20;99.40;;;;;;5010696;28;20030;-77
2021/07/11 02:01:20;;;;;;;8.65;3.03;;;24.20;99.50;;;;;;5011684;28;20034;-76
2021/07/11 02:03:46;;;;;;;4.90;2.75;;;24.20;99.50;;;;;;5011425;28;20033;-76
2021/07/11 02:06:13;;;;;;;12.02;2.60;;;24.20;99.60;;;;;;5010638;28;20029;-77
2021/07/11 02:08:41;;;;;;;3.75;2.75;;;24.20;99.70;;;;;;5011603;28;20033;-77
2021/07/11 02:11:08;;;;;;;4.97;2.70;;;24.20;99.70;;;;;;5011665;28;20048;-77
2021/07/11 02:14:01;;;;;;;5.85;2.80;;;24.20;99.60;;;;;;5011480;28;20034;-76
2021/07/11 02:16:45;;;;;;;5.20;2.97;;;24.20;99.70;;;;;;5011626;28;20026;-77
2021/07/11 02:19:11;;;;;;;5.32;2.72;;;24.20;99.80;;;;;;5011599;28;20041;-76
2021/07/11 02:21:39;;;;;;;10.55;3.00;;;24.10;99.80;;;;;;5011884;28;20026;-76
2021/07/11 02:24:05;;;;;;;11.20;2.72;;;24.10;99.80;;;;;;5011248;28;20192;-76
2021/07/11 02:26:34;;;;;;;3.80;3.08;;;24.10;99.90;;;;;;5011476;28;20030;-76
2021/07/11 02:29:07;;;;;;;8.20;3.17;;;24.00;99.90;;;;;;5011321;28;20029;-77
2021/07/11 02:31:40;;;;;;;6.45;2.85;;;24.00;99.90;;;;;;5011221;28;20070;-76
2021/07/11 02:34:08;;;;;;;8.30;3.13;;;24.00;99.90;;;;;;5011416;28;20010;-77
2021/07/11 02:36:35;;;;;;;7.43;3.03;;;23.90;99.90;;;;;;5011851;28;20022;-77
2021/07/11 02:39:10;;;;;;;3.85;2.80;;;23.90;99.90;;;;;;5012370;28;20447;-77
2021/07/11 02:41:39;;;;;;;4.90;2.92;;;23.80;99.90;;;;;;5011868;28;20021;-77
2021/07/11 02:44:10;;;;;;;3.63;2.90;;;23.80;99.90;;;;;;5011908;28;20014;-76
2021/07/11 02:46:45;;;;;;;3.60;2.92;;;23.80;99.90;;;;;;5012105;28;20060;-76
2021/07/11 02:49:13;;;;;;;15.45;2.88;;;23.80;99.90;;;;;;5012094;28;20431;-76
2021/07/11 02:51:43;;;;;;;8.80;3.35;;;23.80;99.90;;;;;;5012068;28;20088;-77
2021/07/11 02:54:13;;;;;;;4.05;3.13;;;23.80;99.90;;;;;;5012043;28;20554;-77
2021/07/11 02:56:41;;;;;;;9.20;2.92;;;23.80;99.90;;;;;;5011162;28;20054;-77
2021/07/11 02:59:09;;;;;;;5.47;2.70;;;23.80;99.90;;;;;;5012189;28;20036;-77
2021/07/11 03:01:36;;;;;;;4.40;3.03;;;23.70;99.90;;;;;;5011833;28;20113;-76
2021/07/11 03:04:04;;;;;;;8.90;3.33;;;23.70;99.90;;;;;;5012173;28;20080;-77
2021/07/11 03:06:34;;;;;;;4.70;3.20;;;23.70;99.90;;;;;;5011861;28;20389;-76
2021/07/11 03:09:04;;;;;;;4.00;2.97;;;23.70;99.90;;;;;;5011973;28;20077;-77
2021/07/11 03:11:31;;;;;;;8.07;3.35;;;23.70;99.90;;;;;;5011950;28;20437;-76
2021/07/11 03:13:58;;;;;;;3.17;2.53;;;23.60;99.90;;;;;;5011852;28;20022;-77
2021/07/11 03:16:27;;;;;;;16.90;3.25;;;23.60;99.90;;;;;;5010917;28;20057;-77
2021/07/11 03:18:56;;;;;;;4.68;3.20;;;23.60;99.90;;;;;;5011082;28;20061;-77
2021/07/11 03:21:24;;;;;;;4.45;2.95;;;23.50;99.90;;;;;;5011757;28;20032;-77
2021/07/11 03:23:52;;;;;;;3.90;2.92;;;23.50;99.90;;;;;;5010589;28;20037;-77
2021/07/11 03:26:19;;;;;;;5.93;3.33;;;23.50;99.90;;;;;;5011881;28;20045;-78
2021/07/11 03:28:46;;;;;;;9.68;2.92;;;23.60;99.90;;;;;;5011182;28;20033;-76
2021/07/11 03:31:12;;;;;;;5.95;2.70;;;23.50;99.90;;;;;;5011497;28;20029;-76
2021/07/11 03:33:42;;;;;;;7.07;3.00;;;23.60;99.90;;;;;;5011449;28;20415;-76
2021/07/11 03:36:11;;;;;;;4.32;3.00;;;23.60;99.90;;;;;;5011397;28;20073;-76
2021/07/11 03:38:59;;;;;;;8.02;3.67;;;23.60;99.90;;;;;;5011541;28;20053;-76
2021/07/11 03:41:33;;;;;;;5.00;3.10;;;23.60;99.90;;;;;;5011546;28;20105;-76
2021/07/11 03:44:00;;;;;;;5.38;3.03;;;23.50;99.90;;;;;;5011582;28;20030;-76
2021/07/11 03:46:29;;;;;;;11.02;3.00;;;23.50;99.90;;;;;;5011377;28;20025;-76
2021/07/11 03:49:08;;;;;;;6.45;3.35;;;23.50;99.90;;;;;;5011159;28;20386;-76
2021/07/11 03:51:37;;;;;;;5.20;3.35;;;23.60;99.90;;;;;;5010942;28;20378;-76
2021/07/11 03:54:04;;;;;;;5.07;2.72;;;23.50;99.90;;;;;;5011631;28;20076;-78
2021/07/11 03:56:32;;;;;;;13.20;3.17;;;23.50;99.90;;;;;;5011311;28;20057;-76
2021/07/11 03:58:58;;;;;;;7.32;3.08;;;23.40;99.90;;;;;;5010370;28;20032;-76
2021/07/11 04:01:33;;;;;;;17.20;3.42;;;23.40;99.90;;;;;;5010507;28;20558;-76
2021/07/11 04:04:02;;;;;;;15.43;3.28;;;23.40;99.90;;;;;;5011124;28;20026;-75
2021/07/11 04:06:31;;;;;;;6.95;2.70;;;23.40;99.90;;;;;;5011659;28;20092;-75
2021/07/11 04:08:59;;;;;;;4.70;3.00;;;23.40;99.90;;;;;;5012795;28;20475;-76
2021/07/11 04:11:27;;;;;;;7.93;3.63;;;23.40;99.90;;;;;;5014857;28;20042;-76
2021/07/11 04:13:52;;;;;;;6.25;2.70;;;23.40;99.90;;;;;;5013422;28;20105;-76
2021/07/11 04:16:23;;;;;;;6.10;3.00;;;23.50;99.90;;;;;;5014166;28;20669;-76
2021/07/11 04:18:51;;;;;;;6.13;2.92;;;23.60;99.90;;;;;;5013769;28;20025;-76
2021/07/11 04:21:18;;;;;;;4.13;2.80;;;23.80;99.90;;;;;;5014401;28;20025;-76
2021/07/11 04:23:47;;;;;;;5.82;3.08;;;23.80;99.90;;;;;;5014002;28;20209;-75
2021/07/11 04:26:13;;;;;;;8.13;3.30;;;24.00;99.90;;;;;;5014395;28;20042;-77
2021/07/11 04:28:45;;;;;;;5.53;2.85;;;24.10;99.90;;;;;;5014068;28;20022;-76
2021/07/11 04:31:11;;;;;;;6.97;2.53;;;24.20;99.90;;;;;;5013282;28;20117;-76
2021/07/11 04:33:37;;;;;;;5.60;2.80;;;24.30;99.90;;;;;;5013310;28;20017;-76
2021/07/11 04:36:09;;;;;;;4.90;2.90;;;24.40;99.90;;;;;;5011849;28;20469;-76
2021/07/11 04:38:35;;;;;;;3.03;2.72;;;24.70;99.90;;;;;;5013348;28;20021;-75
2021/07/11 04:41:03;;;;;;;4.68;3.13;;;24.90;99.90;;;;;;5011112;28;20089;-76
2021/07/11 04:43:29;;;;;;;4.10;2.50;;;25.00;99.90;;;;;;5013853;28;20450;-76
2021/07/11 04:45:55;;;;;;;4.00;2.45;;;25.30;99.70;;;;;;5013912;28;20113;-76
2021/07/11 04:48:20;;;;;;;6.22;2.70;;;25.50;99.40;;;;;;5013948;28;20505;-76
2021/07/11 04:50:49;;;;;;;6.43;2.58;;;25.90;99.10;;;;;;5013549;28;20109;-76
2021/07/11 04:53:16;;;;;;;4.15;2.42;;;26.20;98.70;;;;;;5013273;28;20101;-76
2021/07/11 04:55:44;;;;;;;6.55;3.28;;;26.20;98.50;;;;;;5013949;28;20451;-77
2021/07/11 04:58:10;;;;;;;2.83;2.20;;;26.40;98.20;;;;;;5013938;28;20099;-76
2021/07/11 05:00:36;;;;;;;3.95;2.10;;;26.90;97.90;;;;;;5014082;28;20022;-76
2021/07/11 05:03:02;;;;;;;3.45;2.20;;;27.20;97.50;;;;;;5007889;28;20014;-76
2021/07/11 05:05:27;;;;;;;7.80;2.20;;;27.70;96.80;;;;;;5013725;28;20097;-76
2021/07/11 05:07:53;;;;;;;2.22;1.80;;;28.10;96.30;;;;;;5012156;28;20061;-76
2021/07/11 05:10:19;;;;;;;5.25;2.05;;;28.50;95.90;;;;;;5013499;28;20022;-76
2021/07/11 05:12:45;;;;;;;7.15;1.90;;;29.10;95.20;;;;;;5013532;28;20390;-76
2021/07/11 05:15:11;;;;;;;4.80;1.77;;;29.40;94.90;;;;;;5013306;28;20014;-77
2021/07/11 05:17:37;;;;;;;4.93;2.00;;;29.70;94.50;;;;;;5013055;28;20390;-77
2021/07/11 05:20:05;;;;;;;4.93;2.03;;;30.00;94.20;;;;;;5012752;28;20030;-76
2021/07/11 05:22:31;;;;;;;2.17;1.52;;;30.30;93.60;;;;;;5011975;28;20038;-77
2021/07/11 05:24:56;;;;;;;7.50;1.60;;;30.90;93.10;;;;;;5013459;28;20149;-77
2021/07/11 05:27:22;;;;;;;3.92;1.80;;;31.60;92.60;;;;;;5012069;28;20072;-76
2021/07/11 05:29:48;;;;;;;2.90;1.70;;;32.50;91.60;;;;;;5012179;28;20101;-77
2021/07/11 05:32:13;;;;;;;4.85;1.70;;;32.30;91.30;;;;;;5013151;28;20487;-77
2021/07/11 05:34:39;;;;;;;3.55;1.75;;;32.60;91.20;;;;;;5012493;28;20543;-77
2021/07/11 05:37:05;;;;;;;3.20;1.42;;;33.20;90.50;;;;;;5011221;28;20026;-76
2021/07/11 05:39:30;;;;;;;5.45;2.05;;;33.50;90.20;;;;;;5010796;28;20029;-77
2021/07/11 05:41:56;;;;;;;8.25;1.98;;;33.50;89.60;;;;;;5011303;28;20113;-77
2021/07/11 05:44:22;;;;;;;5.85;1.40;;;34.30;89.10;;;;;;5011229;28;20433;-77
2021/07/11 05:46:50;;;;;;;2.33;1.60;;;35.20;86.90;;;;;;5012234;28;20116;-78
2021/07/11 05:49:18;;;;;;;6.45;1.63;;;35.40;85.70;;;;;;5012668;28;20026;-78
2021/07/11 05:51:44;;;;;;;3.13;1.30;;;36.10;84.40;;;;;;5012134;28;20037;-77
2021/07/11 05:54:09;;;;;;;2.08;1.30;;;36.20;83.80;;;;;;5011981;28;20084;-77
2021/07/11 05:56:35;;;;;;;6.30;1.38;;;36.20;83.50;;;;;;5012493;28;20056;-78
2021/07/11 05:59:03;;;;;;;4.00;1.58;;;36.60;83.10;;;;;;5011609;28;20117;-78
2021/07/11 06:01:28;;;;;;;4.00;1.58;;;37.00;81.80;;;;;;5012532;28;20030;-78
2021/07/11 06:03:54;;;;;;;9.52;1.45;;;37.80;80.90;;;;;;5011559;28;20025;-78
2021/07/11 06:06:21;;;;;;;7.88;1.35;;;38.40;79.60;;;;;;5012178;28;20030;-78
2021/07/11 06:08:47;;;;;;;4.15;1.30;;;38.60;78.10;;;;;;5011951;28;20026;-78
2021/07/11 06:11:13;;;;;;;5.60;1.88;;;38.90;77.00;;;;;;5012575;28;20038;-78
2021/07/11 06:13:38;;;;;;;7.80;1.08;;;39.00;76.30;;;;;;5012134;28;20067;-79
2021/07/11 06:16:04;;;;;;;1.95;1.00;;;39.80;75.50;;;;;;5012714;28;20465;-77
2021/07/11 06:18:32;;;;;;;4.43;1.38;;;39.80;73.80;;;;;;5012548;28;20021;-77
2021/07/11 06:20:58;;;;;;;8.95;1.00;;;39.90;73.70;;;;;;5012053;28;20115;-78
2021/07/11 06:23:23;;;;;;;3.20;0.93;;;39.80;73.20;;;;;;5012307;28;20502;-76
2021/07/11 06:25:49;;;;;;;7.75;1.42;;;40.20;72.70;;;;;;5012376;28;20506;-79
2021/07/11 06:28:15;;;;;;;1.83;1.10;;;39.50;72.10;;;;;;5012075;28;20049;-78
2021/07/11 06:30:41;;;;;;;5.10;1.33;;;39.80;72.20;;;;;;5011704;28;20042;-78
2021/07/11 06:33:06;;;;;;;2.30;1.15;;;40.50;71.50;;;;;;5011796;28;20034;-77
2021/07/11 06:35:32;;;;;;;8.70;1.35;;;40.40;71.40;;;;;;4998258;28;20352;-79
2021/07/11 06:38:00;;;;;;;8.93;1.42;;;40.90;70.10;;;;;;5012188;28;20097;-78
2021/07/11 06:40:26;;;;;;;8.90;1.20;;;41.10;69.20;;;;;;5012207;28;20022;-78
2021/07/11 06:42:58;;;;;;;6.32;1.13;;;41.20;68.70;;;;;;5011782;28;20049;-79
2021/07/11 06:45:24;;;;;;;2.50;1.27;;;40.80;69.10;;;;;;5010780;28;20129;-79
2021/07/11 06:47:49;;;;;;;3.13;0.95;;;40.30;69.40;;;;;;5011159;28;20022;-79
2021/07/11 06:50:16;;;;;;;4.47;0.90;;;40.30;69.50;;;;;;5011742;28;20557;-80
2021/07/11 06:52:44;;;;;;;2.38;1.13;;;40.60;68.70;;;;;;5011379;28;20532;-77
2021/07/11 06:55:11;;;;;;;2.47;1.10;;;41.40;68.00;;;;;;5011795;28;20026;-80
2021/07/11 06:57:40;;;;;;;7.57;1.10;;;41.40;67.30;;;;;;5012034;28;20068;-77
2021/07/11 07:00:14;;;;;;;2.63;1.20;;;40.50;68.40;;;;;;5011913;28;20493;-76
2021/07/11 07:02:41;;;;;;;1.45;1.33;;;39.60;69.50;;;;;;5011832;28;20018;-77
2021/07/11 07:05:08;;;;;;;4.10;1.30;;;38.70;70.80;;;;;;5010418;28;20030;-77
2021/07/11 07:07:35;;;;;;;3.95;1.20;;;37.40;73.40;;;;;;5011953;28;20100;-77
2021/07/11 07:10:05;;;;;;;8.60;1.52;;;36.50;75.10;;;;;;5011990;28;20524;-77
2021/07/11 07:12:31;;;;;;;7.82;1.42;;;35.70;76.50;;;;;;5012025;28;20034;-77
2021/07/11 07:14:57;;;;;;;3.50;1.50;;;34.80;77.90;;;;;;5011680;28;20026;-77
2021/07/11 07:17:25;;;;;;;14.15;1.40;;;34.20;79.30;;;;;;5010530;28;20084;-77
2021/07/11 07:19:52;;;;;;;6.78;1.58;;;33.70;81.10;;;;;;5010958;28;20033;-79
2021/07/11 07:22:21;;;;;;;3.67;1.55;;;33.10;81.30;;;;;;5009547;28;20132;-78
2021/07/11 07:24:47;;;;;;;2.88;1.40;;;32.80;82.50;;;;;;5005638;28;20026;-76
2021/07/11 07:27:13;;;;;;;2.17;1.42;;;32.70;83.20;;;;;;5004402;28;20037;-77
2021/07/11 07:29:38;;;;;;;2.75;1.60;;;32.30;83.10;;;;;;5011187;28;20048;-77
2021/07/11 07:32:07;;;;;;;7.05;1.60;;;32.30;83.70;;;;;;5009429;28;20038;-77
2021/07/11 07:34:33;;;;;;;2.50;1.30;;;32.30;84.60;;;;;;5009975;28;20022;-80
2021/07/11 07:36:59;;;;;;;3.10;1.60;;;32.40;83.30;;;;;;5010984;28;20494;-76
2021/07/11 07:39:28;;;;;;;2.58;1.42;;;32.40;83.00;;;;;;5010952;28;20018;-77
2021/07/11 07:41:55;;;;;;;2.65;1.60;;;32.30;82.90;;;;;;5011461;28;20105;-77
2021/07/11 07:44:21;;;;;;;2.80;1.80;;;32.20;82.90;;;;;;5014721;28;20053;-77
2021/07/11 07:46:46;;;;;;;6.85;1.60;;;31.90;82.90;;;;;;5011528;28;20036;-79
2021/07/11 07:49:13;;;;;;;3.58;1.20;;;31.90;83.80;;;;;;5013685;28;20021;-77
2021/07/11 07:51:40;;;;;;;2.30;1.55;;;32.30;83.70;;;;;;5014692;28;20041;-77
2021/07/11 07:54:06;;;;;;;9.55;1.70;;;32.10;83.70;;;;;;5014321;28;20022;-76
2021/07/11 07:56:37;;;;;;;5.07;1.40;;;32.30;84.20;;;;;;5014160;28;20478;-77
2021/07/11 07:59:03;;;;;;;9.07;1.90;;;32.30;82.90;;;;;;5014155;28;20061;-77
2021/07/11 08:01:29;;;;;;;7.32;2.05;;;32.50;82.80;;;;;;5013734;28;20076;-76
2021/07/11 08:03:54;;;;;;;6.93;1.70;;;32.40;82.80;;;;;;5013958;28;20022;-77
2021/07/11 08:06:20;;;;;;;10.48;1.30;;;32.60;82.50;;;;;;5013632;28;20104;-77
2021/07/11 08:08:46;;;;;;;2.70;1.65;;;32.60;82.00;;;;;;5006184;28;20116;-77
2021/07/11 08:11:11;;;;;;;6.55;1.90;;;32.80;82.50;;;;;;5013744;28;20030;-78
2021/07/11 08:13:38;;;;;;;3.95;2.20;;;32.90;81.40;;;;;;5014400;28;20030;-78
2021/07/11 08:16:07;;;;;;;5.57;2.10;;;33.10;81.40;;;;;;5013627;28;20037;-78
2021/07/11 08:18:35;;;;;;;10.13;1.92;;;33.20;81.60;;;;;;5011286;28;20126;-76
2021/07/11 08:21:01;;;;;;;4.35;2.00;;;33.10;80.90;;;;;;5010562;28;20033;-77
2021/07/11 08:23:26;;;;;;;1.75;1.58;;;33.20;81.30;;;;;;5013104;28;20434;-77
2021/07/11 08:25:52;;;;;;;2.25;1.70;;;33.10;80.90;;;;;;5003590;28;20077;-77
2021/07/11 08:28:18;;;;;;;4.70;1.70;;;32.90;81.20;;;;;;5006407;28;20479;-77
2021/07/11 08:30:51;;;;;;;6.75;2.03;;;33.10;80.90;;;;;;5009710;28;20119;-77
2021/07/11 08:33:16;;;;;;;11.23;2.22;;;33.30;80.80;;;;;;5006014;28;20028;-78
2021/07/11 08:35:42;;;;;;;5.40;1.40;;;33.30;80.70;;;;;;5009426;28;20144;-77
2021/07/11 08:38:08;;;;;;;10.07;2.05;;;33.50;81.10;;;;;;4999066;28;20026;-77
2021/07/11 08:40:35;;;;;;;3.05;2.00;;;33.50;80.40;;;;;;5011929;28;20026;-77
2021/07/11 08:43:04;;;;;;;20.45;1.88;;;33.40;80.90;;;;;;5008901;28;20498;-77
2021/07/11 08:45:30;;;;;;;3.15;1.70;;;33.20;80.50;;;;;;5003280;28;20398;-77
2021/07/11 08:47:56;;;;;;;4.90;1.67;;;33.10;80.70;;;;;;5012512;28;20029;-77
2021/07/11 08:50:21;;;;;;;7.10;2.25;;;33.30;81.00;;;;;;5012523;28;20041;-77
2021/07/11 08:52:48;;;;;;;5.90;1.75;;;33.30;80.40;;;;;;5011166;28;20038;-77
2021/07/11 08:55:22;;;;;;;10.80;2.25;;;33.50;80.40;;;;;;5011078;28;20466;-77
2021/07/11 08:57:53;;;;;;;5.50;2.15;;;33.80;81.00;;;;;;5010652;28;20378;-77
2021/07/11 09:00:48;;;;;;;;;;;33.90;79.60;;;;;;5010966;28;20433;-77
2021/07/11 09:03:14;;;;;;;10.73;2.88;;;34.00;79.50;;;;;;4998816;28;19995;-78
2021/07/11 09:05:40;;;;;;;4.05;2.60;;;34.40;86.40;;;;;;5011912;28;20435;-76
2021/07/11 09:08:25;;;;;;;;;;;;;;;;;;;;;
2021/07/11 09:10:56;;;;;;;6.90;3.10;;;34.40;90.00;;;;;;5006230;28;20084;-77
2021/07/11 09:13:31;;;;;;;3.30;2.63;;;34.10;90.50;;;;;;5012520;28;20109;-77
2021/07/11 09:16:00;;;;;;;3.88;2.80;;;33.90;90.50;;;;;;5011058;28;20040;-77
2021/07/11 09:18:33;;;;;;;7.15;2.38;;;33.80;91.00;;;;;;5011766;28;20474;-76
2021/07/11 09:21:03;;;;;;;5.45;2.42;;;33.50;91.70;;;;;;5011165;28;20049;-78
2021/07/11 09:23:31;;;;;;;5.95;2.30;;;33.20;91.90;;;;;;5009872;28;20513;-78
2021/07/11 09:26:08;;;;;;;7.43;2.38;;;33.20;91.90;;;;;;5012006;28;20477;-79
2021/07/11 09:28:36;;;;;;;6.20;2.88;;;33.30;91.80;;;;;;5008549;28;20034;-78
2021/07/11 09:31:18;;;;;;;3.90;2.47;;;33.30;91.50;;;;;;5009060;28;20434;-78
2021/07/11 09:33:53;;;;;;;3.33;2.45;;;33.30;91.60;;;;;;5009379;28;20467;-77
2021/07/11 09:36:20;;;;;;;6.40;2.47;;;33.30;90.90;;;;;;5012123;28;20045;-77
2021/07/11 09:38:51;;;;;;;13.00;2.72;;;33.60;90.60;;;;;;5011548;28;20207;-78
2021/07/11 09:41:27;;;;;;;5.55;2.25;;;33.80;90.90;;;;;;5011449;28;20030;-77
2021/07/11 09:43:57;;;;;;;4.38;2.40;;;34.10;90.30;;;;;;5011455;28;20022;-76
2021/07/11 09:46:24;;;;;;;8.70;2.63;;;34.20;90.30;;;;;;5011549;28;20080;-77
2021/07/11 09:48:50;;;;;;;8.13;2.42;;;34.30;90.40;;;;;;5011085;28;20014;-78
2021/07/11 09:51:23;;;;;;;5.45;2.28;;;34.20;90.40;;;;;;5009684;28;20120;-77
2021/07/11 09:53:53;;;;;;;3.45;2.28;;;34.40;90.30;;;;;;5010539;28;20021;-77
2021/07/11 09:56:36;;;;;;;3.25;2.10;;;34.20;88.80;;;;;;5010577;28;20084;-77
2021/07/11 09:59:07;;;;;;;2.22;1.92;;;34.10;89.80;;;;;;5009525;28;20483;-77
2021/07/11 10:01:35;;;;;;;3.78;2.25;;;34.10;90.30;;;;;;5008708;28;20057;-77
2021/07/11 10:04:03;;;;;;;4.70;2.10;;;34.10;89.60;;;;;;5006681;28;20030;-77
2021/07/11 10:06:30;;;;;;;5.05;2.17;;;33.80;89.60;;;;;;5022075;28;20040;-77
2021/07/11 10:09:00;;;;;;;8.32;2.50;;;33.80;89.70;;;;;;5011713;28;20010;-77
2021/07/11 10:11:26;;;;;;;3.85;2.10;;;33.80;89.00;;;;;;5012120;28;20033;-77
2021/07/11 10:13:52;;;;;;;5.68;2.33;;;33.60;88.70;;;;;;5012109;28;20436;-78
2021/07/11 10:16:19;;;;;;;4.68;2.13;;;33.60;90.00;;;;;;5011566;28;20437;-78
2021/07/11 10:18:49;;;;;;;10.80;3.70;;;33.70;90.10;;;;;;5008586;28;20014;-77
2021/07/11 10:21:18;;;;;;;5.28;2.42;;;33.70;89.40;;;;;;4994078;28;20022;-77
2021/07/11 10:23:46;;;;;;;3.65;2.58;;;33.60;88.00;;;;;;4996255;28;20741;-77
2021/07/11 10:26:14;;;;;;;3.05;2.70;;;33.60;87.70;;;;;;4995542;28;20118;-77
2021/07/11 10:28:43;;;;;;;10.13;2.88;;;33.60;87.70;;;;;;4995054;28;20026;-77
2021/07/11 10:31:29;;;;;;;6.05;2.70;;;33.60;86.90;;;;;;4994267;28;20065;-77
2021/07/11 10:33:59;;;;;;;3.53;2.88;;;33.80;86.00;;;;;;4992811;28;20065;-76
2021/07/11 10:36:39;;;;;;;5.13;3.20;;;33.80;85.90;;;;;;4994246;28;20030;-76
2021/07/11 10:39:09;;;;;;;7.40;3.03;;;33.80;86.70;;;;;;4996221;28;20026;-76
2021/07/11 10:41:47;;;;;;;5.25;3.03;;;33.90;86.40;;;;;;4993967;28;20066;-78
2021/07/11 10:44:18;;;;;;;6.78;2.45;;;33.70;86.00;;;;;;4994038;28;20030;-76
2021/07/11 10:46:53;;;;;;;7.43;2.20;;;33.50;88.50;;;;;;4993905;28;20053;-77
2021/07/11 10:49:21;;;;;;;6.07;2.55;;;33.40;89.20;;;;;;5003463;28;20057;-76
2021/07/11 10:51:56;;;;;;;13.45;2.85;;;33.50;88.90;;;;;;5002478;28;20375;-77
2021/07/11 10:54:31;;;;;;;7.38;2.05;;;33.70;89.70;;;;;;5005187;28;20022;-78
2021/07/11 10:57:01;;;;;;;4.18;2.92;;;33.90;87.20;;;;;;5007886;28;20022;-75
2021/07/11 10:59:31;;;;;;;4.45;2.67;;;33.90;86.20;;;;;;4997520;28;20080;-76
2021/07/11 11:01:57;;;;;;;3.58;2.72;;;34.00;86.40;;;;;;4999105;28;20352;-76
2021/07/11 11:04:23;;;;;;;8.40;3.42;;;34.10;87.00;;;;;;4995948;28;20045;-75
2021/07/11 11:06:49;;;;;;;4.43;2.78;;;34.10;87.10;;;;;;4995754;28;20105;-76
2021/07/11 11:09:38;;;;;;;5.30;2.70;;;34.20;87.10;;;;;;5008113;28;20109;-76
2021/07/11 11:12:27;;;;;;;9.30;3.22;;;34.20;87.10;;;;;;5011480;28;20029;-76
2021/07/11 11:15:03;;;;;;;4.50;3.22;;;33.90;86.40;;;;;;5009410;28;20386;-75
2021/07/11 11:17:34;;;;;;;9.48;3.20;;;33.80;87.50;;;;;;5007087;28;20038;-75
2021/07/11 11:20:03;;;;;;;5.07;3.08;;;33.80;87.50;;;;;;5010668;28;20023;-76
2021/07/11 11:22:29;;;;;;;4.57;2.72;;;33.70;87.90;;;;;;5007456;28;20038;-76
2021/07/11 11:24:55;;;;;;;4.60;2.75;;;33.80;88.40;;;;;;5010479;28;20022;-77
2021/07/11 11:27:32;;;;;;;4.20;2.70;;;33.60;88.10;;;;;;5015559;28;20478;-77
2021/07/11 11:30:35;;;;;;;5.82;2.70;;;33.50;89.50;;;;;;5009026;28;20037;-77
2021/07/11 11:33:01;;;;;;;8.15;2.63;;;33.20;89.70;;;;;;4997979;28;20061;-76
2021/07/11 11:35:30;;;;;;;7.05;2.60;;;33.20;89.50;;;;;;5013423;28;20018;-76
2021/07/11 11:37:58;;;;;;;4.22;2.38;;;33.20;88.70;;;;;;5013790;28;20021;-77
2021/07/11 11:40:27;;;;;;;6.40;2.72;;;33.30;88.50;;;;;;5015933;28;20103;-77
2021/07/11 11:42:59;;;;;;;6.25;2.60;;;33.40;88.40;;;;;;5014448;28;20022;-77
2021/07/11 11:45:26;;;;;;;3.60;2.60;;;33.20;88.60;;;;;;5016004;28;20018;-77
2021/07/11 11:48:04;;;;;;;5.57;2.65;;;33.20;88.30;;;;;;5014294;28;20534;-77
2021/07/11 11:50:31;;;;;;;5.28;2.80;;;33.50;88.40;;;;;;5015833;28;20084;-77
2021/07/11 11:53:14;;;;;;;4.65;2.90;;;33.70;88.10;;;;;;5015489;28;20062;-76
2021/07/11 11:56:00;;;;;;;5.32;2.33;;;33.80;87.60;;;;;;5015202;28;20466;-77
2021/07/11 11:58:29;;;;;;;7.55;3.00;;;33.80;87.40;;;;;;5015090;28;20486;-77
2021/07/11 12:01:07;;;;;;;6.07;3.15;;;33.60;87.70;;;;;;5015507;28;20022;-77
2021/07/11 12:03:36;;;;;;;11.38;3.55;;;33.60;88.10;;;;;;5015391;28;20148;-76
2021/07/11 12:06:07;;;;;;;5.20;3.33;;;33.50;87.30;;;;;;5014887;28;20061;-77
2021/07/11 12:08:44;;;;;;;9.18;3.65;;;33.50;86.10;;;;;;5015565;28;20034;-77
2021/07/11 12:11:12;;;;;;;7.85;3.33;;;33.30;85.70;;;;;;5015156;28;20055;-77
2021/07/11 12:13:38;;;;;;;8.48;3.15;;;33.30;86.60;;;;;;5015469;28;20056;-76
2021/07/11 12:16:17;;;;;;;12.90;3.63;;;33.20;86.40;;;;;;5014786;28;20054;-76
2021/07/11 12:18:52;;;;;;;7.68;2.90;;;33.20;87.80;;;;;;5012495;28;20496;-76
2021/07/11 12:21:27;;;;;;;3.63;2.53;;;33.10;88.60;;;;;;5013406;28;20462;-77
2021/07/11 12:24:04;;;;;;;6.00;3.10;;;33.10;90.20;;;;;;5013597;28;20127;-77
2021/07/11 12:26:33;;;;;;;7.90;3.03;;;33.00;88.20;;;;;;5012379;28;20141;-76
2021/07/11 12:28:59;;;;;;;9.45;2.70;;;32.80;90.80;;;;;;5011998;28;20513;-76
2021/07/11 12:31:28;;;;;;;5.70;2.60;;;32.70;91.80;;;;;;5010996;28;20046;-76
2021/07/11 12:34:03;;;;;;;5.00;2.25;;;32.60;92.00;;;;;;5012856;28;20025;-76
2021/07/11 12:36:30;;;;;;;4.20;2.00;;;32.40;91.50;;;;;;5009574;28;20087;-76
2021/07/11 12:38:59;;;;;;;12.82;2.10;;;32.30;92.20;;;;;;5012646;28;20052;-77
2021/07/11 12:41:35;;;;;;;3.90;2.22;;;32.30;92.30;;;;;;5013540;28;20099;-76
2021/07/11 12:44:04;;;;;;;7.90;2.20;;;32.30;92.70;;;;;;5014091;28;20021;-77
2021/07/11 12:46:31;;;;;;;10.13;2.10;;;32.40;92.30;;;;;;5012374;28;20030;-77
2021/07/11 12:49:12;;;;;;;3.42;2.22;;;32.40;92.20;;;;;;5013365;28;20120;-77
2021/07/11 12:51:43;;;;;;;8.90;2.97;;;32.30;91.70;;;;;;5013115;28;20503;-77
2021/07/11 12:54:14;;;;;;;3.20;2.00;;;32.30;92.50;;;;;;5014404;28;20502;-77
2021/07/11 12:56:54;;;;;;;19.25;3.00;;;32.10;93.00;;;;;;5012930;28;20049;-76